createdAt,value
2022-09-21T00:01:16.338Z,0.43
2022-09-21T00:03:44.311Z,0.40
2022-09-21T00:06:19.568Z,0.30
2022-09-21T00:08:48.213Z,0.25
2022-09-21T00:11:35.725Z,0.40
2022-09-21T00:14:07.596Z,0.55
2022-09-21T00:16:35.005Z,0.45
2022-09-21T00:19:02.073Z,0.43
2022-09-21T00:21:29.415Z,0.40
2022-09-21T00:23:56.499Z,0.43
2022-09-21T00:26:25.614Z,0.30
2022-09-21T00:28:57.912Z,0.47
2022-09-21T00:31:25.323Z,0.43
2022-09-21T00:33:52.678Z,0.30
2022-09-21T00:36:22.960Z,0.30
2022-09-21T00:38:52.124Z,0.40
2022-09-21T00:41:19.384Z,0.25
2022-09-21T00:43:48.920Z,0.30
2022-09-21T00:46:29.703Z,0.30
2022-09-21T00:48:58.083Z,0.38
2022-09-21T00:51:25.885Z,0.30
2022-09-21T00:53:58.808Z,0.30
2022-09-21T00:56:26.750Z,0.30
2022-09-21T00:58:55.071Z,0.28
2022-09-21T01:01:22.318Z,0.40
2022-09-21T01:03:51.780Z,0.30
2022-09-21T01:06:20.829Z,0.28
2022-09-21T01:08:52.850Z,0.20
2022-09-21T01:11:42.184Z,0.20
2022-09-21T01:14:20.503Z,0.30
2022-09-21T01:17:07.201Z,0.30
2022-09-21T01:20:00.312Z,0.38
2022-09-21T01:22:58.910Z,0.20
2022-09-21T01:26:08.097Z,0.30
2022-09-21T01:28:46.847Z,0.30
2022-09-21T01:31:22.290Z,0.25
2022-09-21T01:33:55.567Z,0.40
2022-09-21T01:36:27.799Z,0.20
2022-09-21T01:39:03.467Z,0.40
2022-09-21T01:41:32.455Z,0.30
2022-09-21T01:44:08.527Z,0.20
2022-09-21T01:46:37.310Z,0.20
2022-09-21T01:49:13.821Z,0.35
2022-09-21T01:51:46.532Z,0.30
2022-09-21T01:54:19.745Z,0.20
2022-09-21T01:56:52.236Z,0.20
2022-09-21T01:59:49.853Z,0.30
2022-09-21T02:02:29.971Z,0.30
2022-09-21T02:04:57.367Z,0.50
2022-09-21T02:07:25.250Z,0.30
2022-09-21T02:09:54.148Z,0.30
2022-09-21T02:12:20.912Z,0.38
2022-09-21T02:14:49.752Z,0.57
2022-09-21T02:18:07.011Z,0.30
2022-09-21T02:20:43.352Z,0.30
2022-09-21T02:23:26.969Z,0.30
2022-09-21T02:26:13.512Z,0.20
2022-09-21T02:28:45.763Z,0.30
2022-09-21T02:31:25.597Z,0.60
2022-09-21T02:34:05.021Z,0.20
2022-09-21T02:36:45.372Z,0.20
2022-09-21T02:39:24.686Z,0.30
2022-09-21T02:42:03.466Z,0.20
2022-09-21T02:44:39.361Z,0.30
2022-09-21T02:47:21.360Z,0.30
2022-09-21T02:49:56.014Z,0.40
2022-09-21T02:52:25.230Z,0.30
2022-09-21T02:54:54.370Z,0.30
2022-09-21T02:57:23.333Z,0.30
2022-09-21T02:59:51.107Z,0.25
2022-09-21T03:02:18.289Z,0.20
2022-09-21T03:04:47.798Z,0.38
2022-09-21T03:07:16.431Z,0.38
2022-09-21T03:09:43.607Z,0.30
2022-09-21T03:12:10.331Z,0.40
2022-09-21T03:14:37.066Z,0.30
2022-09-21T03:17:03.921Z,0.40
2022-09-21T03:19:30.642Z,0.40
2022-09-21T03:21:57.718Z,0.43
2022-09-21T03:24:43.273Z,0.20
2022-09-21T03:27:10.060Z,0.30
2022-09-21T03:29:36.980Z,0.40
2022-09-21T03:32:03.919Z,0.40
2022-09-21T03:34:31.403Z,0.40
2022-09-21T03:36:58.167Z,0.20
2022-09-21T03:39:25.351Z,0.20
2022-09-21T03:41:52.636Z,0.22
2022-09-21T03:44:20.008Z,0.20
2022-09-21T03:46:46.805Z,0.30
2022-09-21T03:49:13.547Z,0.35
2022-09-21T03:51:40.618Z,0.30
2022-09-21T03:54:07.399Z,0.50
2022-09-21T03:56:34.187Z,0.50
2022-09-21T03:59:01.156Z,0.40
2022-09-21T04:01:28.059Z,0.20
2022-09-21T04:03:54.975Z,0.35
2022-09-21T04:06:21.897Z,0.22
2022-09-21T04:08:48.667Z,0.30
2022-09-21T04:11:18.546Z,0.25
2022-09-21T04:13:50.234Z,0.30
2022-09-21T04:16:17.971Z,0.30
2022-09-21T04:18:44.741Z,0.30
2022-09-21T04:21:11.491Z,0.50
2022-09-21T04:23:38.284Z,0.40
2022-09-21T04:26:05.184Z,0.30
2022-09-21T04:28:32.860Z,0.30
2022-09-21T04:30:59.781Z,0.38
2022-09-21T04:33:26.617Z,0.40
2022-09-21T04:35:56.694Z,0.50
2022-09-21T04:38:23.779Z,0.30
2022-09-21T04:40:57.896Z,0.40
2022-09-21T04:43:25.322Z,0.52
2022-09-21T04:45:52.476Z,0.40
2022-09-21T04:48:19.302Z,0.40
2022-09-21T04:50:49.763Z,0.50
2022-09-21T04:53:16.868Z,0.50
2022-09-21T04:55:45.373Z,0.30
2022-09-21T04:58:12.154Z,0.32
2022-09-21T05:00:38.986Z,0.30
2022-09-21T05:03:05.761Z,0.50
2022-09-21T05:05:33.123Z,1.38
2022-09-21T05:07:59.890Z,0.60
2022-09-21T05:10:26.998Z,0.40
2022-09-21T05:12:53.701Z,0.50
2022-09-21T05:15:22.037Z,0.30
2022-09-21T05:17:48.838Z,0.40
2022-09-21T05:20:15.633Z,0.30
2022-09-21T05:22:42.446Z,0.22
2022-09-21T05:25:09.724Z,0.50
2022-09-21T05:27:36.578Z,0.40
2022-09-21T05:30:04.269Z,0.30
2022-09-21T05:32:45.587Z,0.30
2022-09-21T05:35:23.558Z,0.30
2022-09-21T05:37:53.034Z,0.30
2022-09-21T05:40:20.331Z,0.30
2022-09-21T05:42:47.450Z,0.30
2022-09-21T05:45:18.637Z,0.50
2022-09-21T05:47:54.120Z,0.60
2022-09-21T05:50:45.623Z,0.52
2022-09-21T05:53:44.648Z,0.55
2022-09-21T05:56:33.159Z,0.50
2022-09-21T05:59:31.171Z,0.52
2022-09-21T06:02:06.641Z,0.40
2022-09-21T06:04:33.673Z,0.50
2022-09-21T06:07:00.736Z,0.50
2022-09-21T06:09:28.006Z,0.60
2022-09-21T06:11:54.807Z,0.50
2022-09-21T06:14:25.615Z,0.40
2022-09-21T06:16:52.964Z,0.40
2022-09-21T06:19:19.764Z,0.40
2022-09-21T06:21:46.817Z,0.52
2022-09-21T06:24:13.671Z,0.40
2022-09-21T06:26:40.446Z,0.50
2022-09-21T06:29:07.174Z,0.73
2022-09-21T06:31:34.821Z,0.50
2022-09-21T06:34:01.678Z,0.40
2022-09-21T06:36:28.539Z,0.60
2022-09-21T06:38:55.363Z,1.08
2022-09-21T06:41:22.118Z,0.90
2022-09-21T06:43:48.947Z,0.80
2022-09-21T06:46:15.721Z,0.98
2022-09-21T06:48:42.494Z,0.60
2022-09-21T06:51:10.247Z,0.90
2022-09-21T06:53:37.125Z,0.73
2022-09-21T06:56:05.962Z,1.02
2022-09-21T06:58:34.619Z,0.70
2022-09-21T07:01:09.938Z,0.90
2022-09-21T07:03:38.157Z,1.10
2022-09-21T07:06:05.999Z,1.45
2022-09-21T07:11:20.737Z,1.52
2022-09-21T07:13:47.482Z,1.45
2022-09-21T07:16:14.475Z,1.25
2022-09-21T07:18:43.775Z,1.02
2022-09-21T07:21:12.294Z,0.80
2022-09-21T07:23:39.128Z,0.75
2022-09-21T07:26:09.197Z,1.10
2022-09-21T07:28:36.452Z,0.70
2022-09-21T07:31:11.892Z,0.73
2022-09-21T07:33:38.720Z,0.90
2022-09-21T07:36:10.647Z,0.90
2022-09-21T07:38:42.263Z,1.30
2022-09-21T07:41:11.649Z,1.30
2022-09-21T07:43:41.291Z,1.30
2022-09-21T07:46:10.166Z,1.38
2022-09-21T07:48:37.725Z,1.02
2022-09-21T07:51:06.930Z,2.00
2022-09-21T07:53:34.804Z,2.00
2022-09-21T07:56:06.710Z,2.20
2022-09-21T07:58:52.371Z,2.22
2022-09-21T08:01:19.296Z,1.80
2022-09-21T08:03:52.574Z,2.60
2022-09-21T08:06:20.562Z,1.80
2022-09-21T08:08:48.286Z,1.60
2022-09-21T08:11:17.194Z,1.50
2022-09-21T08:13:44.431Z,1.60
2022-09-21T08:16:11.581Z,1.27
2022-09-21T08:18:39.933Z,2.05
2022-09-21T08:21:07.602Z,1.80
2022-09-21T08:23:35.224Z,1.90
2022-09-21T08:26:06.192Z,1.90
2022-09-21T08:28:34.704Z,2.08
2022-09-21T08:31:06.042Z,1.90
2022-09-21T08:33:32.878Z,2.60
2022-09-21T08:36:01.887Z,2.55
2022-09-21T08:38:34.355Z,3.65
2022-09-21T08:41:02.567Z,3.53
2022-09-21T08:43:35.995Z,2.70
2022-09-21T08:46:11.346Z,2.20
2022-09-21T08:49:03.919Z,2.35
2022-09-21T08:51:35.554Z,3.15
2022-09-21T08:54:18.806Z,3.65
2022-09-21T08:57:04.351Z,3.72
2022-09-21T08:59:31.762Z,2.97
2022-09-21T09:02:04.844Z,2.38
2022-09-21T09:05:25.951Z,3.10
2022-09-21T09:08:13.357Z,3.53
2022-09-21T09:11:13.496Z,2.92
2022-09-21T09:13:46.250Z,2.80
2022-09-21T09:16:40.422Z,2.53
2022-09-21T09:19:46.717Z,3.60
2022-09-21T09:22:18.165Z,2.58
2022-09-21T09:24:50.741Z,1.95
2022-09-21T09:27:43.066Z,2.70
2022-09-21T09:30:20.691Z,3.38
2022-09-21T09:32:52.440Z,3.75
2022-09-21T09:35:21.877Z,3.15
2022-09-21T09:37:50.116Z,2.60
2022-09-21T09:40:28.428Z,2.28
2022-09-21T09:43:11.800Z,2.10
2022-09-21T09:45:44.642Z,2.60
2022-09-21T09:48:23.542Z,2.15
2022-09-21T09:50:50.396Z,1.23
2022-09-21T09:53:20.619Z,1.50
2022-09-21T09:55:50.244Z,2.10
2022-09-21T09:58:57.679Z,1.88
2022-09-21T10:01:46.607Z,2.85
2022-09-21T10:04:21.300Z,2.13
2022-09-21T10:06:48.095Z,2.30
2022-09-21T10:09:28.416Z,1.92
2022-09-21T10:12:01.005Z,1.63
2022-09-21T10:14:32.906Z,2.83
2022-09-21T10:17:08.166Z,2.40
2022-09-21T10:19:35.390Z,2.75
2022-09-21T10:22:04.940Z,3.00
2022-09-21T10:24:38.208Z,1.90
2022-09-21T10:27:11.987Z,2.08
2022-09-21T10:29:41.745Z,2.25
2022-09-21T10:32:19.509Z,2.05
2022-09-21T10:35:07.782Z,2.83
2022-09-21T10:37:41.432Z,3.40
2022-09-21T10:40:20.421Z,2.30
2022-09-21T10:42:49.754Z,2.75
2022-09-21T10:45:23.004Z,2.25
2022-09-21T10:47:57.393Z,1.40
2022-09-21T10:50:29.393Z,1.25
2022-09-21T10:53:11.109Z,1.65
2022-09-21T10:55:48.168Z,1.58
2022-09-21T10:58:25.373Z,1.58
2022-09-21T11:00:55.858Z,1.27
2022-09-21T11:03:33.813Z,1.42
2022-09-21T11:06:17.023Z,1.27
2022-09-21T11:08:51.930Z,1.20
2022-09-21T11:11:45.882Z,1.10
2022-09-21T11:14:27.856Z,1.30
2022-09-21T11:17:14.424Z,1.20
2022-09-21T11:19:52.819Z,0.90
2022-09-21T11:22:38.235Z,0.70
2022-09-21T11:25:25.648Z,0.80
2022-09-21T11:27:59.703Z,0.90
2022-09-21T11:30:33.411Z,0.85
2022-09-21T11:33:49.740Z,0.80
2022-09-21T11:36:38.452Z,0.47
2022-09-21T11:39:34.638Z,0.45
2022-09-21T11:42:22.768Z,0.68
2022-09-21T11:45:07.425Z,0.50
2022-09-21T11:47:39.667Z,0.40
2022-09-21T11:50:31.865Z,0.40
2022-09-21T11:53:28.700Z,0.28
2022-09-21T11:56:27.148Z,0.47
2022-09-21T11:59:07.074Z,0.68
2022-09-21T12:01:46.447Z,0.60
2022-09-21T12:04:24.850Z,0.40
2022-09-21T12:06:57.206Z,0.73
2022-09-21T12:09:29.788Z,0.70
2022-09-21T12:12:14.562Z,0.50
2022-09-21T12:15:14.890Z,0.45
2022-09-21T12:17:49.633Z,0.45
2022-09-21T12:20:25.331Z,0.50
2022-09-21T12:23:10.631Z,0.50
2022-09-21T12:25:44.207Z,0.30
2022-09-21T12:28:23.092Z,0.50
2022-09-21T12:31:00.383Z,0.60
2022-09-21T12:33:51.904Z,0.50
2022-09-21T12:36:41.797Z,0.40
2022-09-21T12:39:28.476Z,0.30
2022-09-21T12:42:11.566Z,0.47
2022-09-21T12:44:54.151Z,0.30
2022-09-21T12:47:24.849Z,0.40
2022-09-21T12:49:56.813Z,0.40
2022-09-21T12:52:26.137Z,0.30
2022-09-21T12:55:23.113Z,0.40
2022-09-21T12:58:27.203Z,0.50
2022-09-21T13:01:03.346Z,0.65
2022-09-21T13:03:49.802Z,0.22
2022-09-21T13:06:45.320Z,0.32
2022-09-21T13:09:16.544Z,0.43
2022-09-21T13:11:57.260Z,0.45
2022-09-21T13:14:28.437Z,0.30
2022-09-21T13:17:02.953Z,0.30
2022-09-21T13:19:33.358Z,0.22
2022-09-21T13:22:25.785Z,0.50
2022-09-21T13:25:07.153Z,0.50
2022-09-21T13:28:04.201Z,0.40
2022-09-21T13:30:43.706Z,0.50
2022-09-21T13:33:24.303Z,0.30
2022-09-21T13:35:51.635Z,0.32
2022-09-21T13:38:54.687Z,0.38
2022-09-21T13:41:45.540Z,0.20
2022-09-21T13:44:21.868Z,0.20
2022-09-21T13:46:54.122Z,0.47
2022-09-21T13:49:38.995Z,0.20
2022-09-21T13:52:07.867Z,0.30
2022-09-21T13:54:38.566Z,0.40
2022-09-21T13:57:27.996Z,0.30
2022-09-21T14:00:12.896Z,0.40
2022-09-21T14:02:46.832Z,0.50
2022-09-21T14:05:24.139Z,0.50
2022-09-21T14:08:18.544Z,0.40
2022-09-21T14:10:58.351Z,0.43
2022-09-21T14:13:34.334Z,0.40
2022-09-21T14:16:29.531Z,0.40
2022-09-21T14:18:56.680Z,0.50
2022-09-21T14:21:23.961Z,0.40
2022-09-21T14:24:06.041Z,0.45
2022-09-21T14:26:42.404Z,0.50
2022-09-21T14:29:16.073Z,0.40
2022-09-21T14:31:43.787Z,0.30
2022-09-21T14:34:23.346Z,0.40
2022-09-21T14:36:58.004Z,0.32
2022-09-21T14:39:37.955Z,0.40
2022-09-21T14:42:19.598Z,0.45
2022-09-21T14:44:51.887Z,0.40
2022-09-21T14:47:21.921Z,0.40
2022-09-21T14:50:28.754Z,0.45
2022-09-21T14:53:28.212Z,0.40
2022-09-21T14:56:23.118Z,0.40
2022-09-21T14:59:12.562Z,0.40
2022-09-21T15:01:42.721Z,0.40
2022-09-21T15:04:32.794Z,0.30
2022-09-21T15:07:42.964Z,0.52
2022-09-21T15:10:40.095Z,0.20
2022-09-21T15:13:44.919Z,0.40
2022-09-21T15:16:38.083Z,0.40
2022-09-21T15:19:11.857Z,0.60
2022-09-21T15:21:43.583Z,0.70
2022-09-21T15:24:34.059Z,0.40
2022-09-21T15:27:12.885Z,0.60
2022-09-21T15:29:42.947Z,0.20
2022-09-21T15:32:09.800Z,0.40
2022-09-21T15:34:36.621Z,0.50
2022-09-21T15:37:09.649Z,0.63
2022-09-21T15:39:36.668Z,0.50
2022-09-21T15:42:09.671Z,0.65
2022-09-21T15:44:39.399Z,0.60
2022-09-21T15:47:12.859Z,0.40
2022-09-21T15:49:42.343Z,0.40
2022-09-21T15:52:29.512Z,0.47
2022-09-21T15:55:00.387Z,0.30
2022-09-21T15:57:31.086Z,0.32
2022-09-21T15:59:58.077Z,0.43
2022-09-21T16:02:35.020Z,0.60
2022-09-21T16:05:02.937Z,0.52
2022-09-21T16:07:35.648Z,0.40
2022-09-21T16:10:24.199Z,0.32
2022-09-21T16:12:51.085Z,0.30
2022-09-21T16:15:33.985Z,0.50
2022-09-21T16:18:04.843Z,0.40
2022-09-21T16:20:43.646Z,0.38
2022-09-21T16:23:17.159Z,0.50
2022-09-21T16:25:44.426Z,0.55
2022-09-21T16:28:17.924Z,0.40
2022-09-21T16:30:51.269Z,0.30
2022-09-21T16:33:41.520Z,0.50
2022-09-21T16:36:17.517Z,0.40
2022-09-21T16:38:47.141Z,0.60
2022-09-21T16:41:17.427Z,0.40
2022-09-21T16:43:45.119Z,0.50
2022-09-21T16:46:13.048Z,0.50
2022-09-21T16:48:40.235Z,0.50
2022-09-21T16:51:14.727Z,0.55
2022-09-21T16:53:41.922Z,0.50
2022-09-21T16:56:15.761Z,0.93
2022-09-21T16:58:45.361Z,0.57
2022-09-21T17:01:14.209Z,0.45
2022-09-21T17:03:41.875Z,0.50
2022-09-21T17:06:18.981Z,0.30
2022-09-21T17:08:48.307Z,0.35
2022-09-21T17:11:20.202Z,0.30
2022-09-21T17:13:48.129Z,0.30
2022-09-21T17:16:18.154Z,0.20
2022-09-21T17:18:46.048Z,0.30
2022-09-21T17:21:13.351Z,0.30
2022-09-21T17:23:42.008Z,0.30
2022-09-21T17:26:17.793Z,0.30
2022-09-21T17:28:45.117Z,0.20
2022-09-21T17:31:13.909Z,0.20
2022-09-21T17:33:41.441Z,0.20
2022-09-21T17:36:14.125Z,0.20
2022-09-21T17:38:42.405Z,0.20
2022-09-21T17:41:32.437Z,0.20
2022-09-21T17:44:12.093Z,0.20
2022-09-21T17:46:55.165Z,0.20
2022-09-21T17:49:22.174Z,0.20
2022-09-21T17:52:07.496Z,0.20
2022-09-21T17:54:34.612Z,0.30
2022-09-21T17:57:11.673Z,0.25
2022-09-21T17:59:40.065Z,0.20
2022-09-21T18:02:20.381Z,0.40
2022-09-21T18:04:49.227Z,0.30
2022-09-21T18:07:16.737Z,0.30
2022-09-21T18:09:43.837Z,0.30
2022-09-21T18:12:28.661Z,0.40
2022-09-21T18:15:23.382Z,0.30
2022-09-21T18:18:09.512Z,0.38
2022-09-21T18:21:05.313Z,0.20
2022-09-21T18:23:52.119Z,0.25
2022-09-21T18:26:20.592Z,0.30
2022-09-21T18:28:57.972Z,0.30
2022-09-21T18:31:52.437Z,0.38
2022-09-21T18:34:56.816Z,0.20
2022-09-21T18:37:36.943Z,0.30
2022-09-21T18:40:28.986Z,0.30
2022-09-21T18:43:33.192Z,0.20
2022-09-21T18:46:32.932Z,0.30
2022-09-21T18:49:17.679Z,0.30
2022-09-21T18:51:57.606Z,0.30
2022-09-21T18:54:27.574Z,0.20
2022-09-21T18:56:55.527Z,0.30
2022-09-21T18:59:23.192Z,0.28
2022-09-21T19:01:50.764Z,0.30
2022-09-21T19:04:18.825Z,0.30
2022-09-21T19:07:03.043Z,0.30
2022-09-21T19:10:17.900Z,0.40
2022-09-21T19:12:53.471Z,0.50
2022-09-21T19:16:09.040Z,0.50
2022-09-21T19:19:04.418Z,0.40
2022-09-21T19:21:34.330Z,0.50
2022-09-21T19:24:07.358Z,0.47
2022-09-21T19:26:49.998Z,0.40
2022-09-21T19:29:38.386Z,0.30
2022-09-21T19:32:14.935Z,0.45
2022-09-21T19:34:42.033Z,0.50
2022-09-21T19:37:09.448Z,0.50
2022-09-21T19:39:37.310Z,0.45
2022-09-21T19:42:27.838Z,0.50
2022-09-21T19:45:26.777Z,0.40
2022-09-21T19:47:58.323Z,0.20
2022-09-21T19:50:49.485Z,0.40
2022-09-21T19:53:42.765Z,0.47
2022-09-21T19:56:33.949Z,0.40
2022-09-21T19:59:19.937Z,0.35
2022-09-21T20:01:53.446Z,0.38
2022-09-21T20:04:56.036Z,0.30
2022-09-21T20:07:35.622Z,0.38
2022-09-21T20:10:11.677Z,0.30
2022-09-21T20:12:49.921Z,0.50
2022-09-21T20:15:22.504Z,0.43
2022-09-21T20:17:54.609Z,0.50
2022-09-21T20:20:29.109Z,0.32
2022-09-21T20:22:56.463Z,0.40
2022-09-21T20:25:36.557Z,0.30
2022-09-21T20:28:04.002Z,0.50
2022-09-21T20:30:34.166Z,0.45
2022-09-21T20:33:06.851Z,0.40
2022-09-21T20:35:35.173Z,0.40
2022-09-21T20:38:03.294Z,0.40
2022-09-21T20:40:32.467Z,0.40
2022-09-21T20:43:01.127Z,0.30
2022-09-21T20:45:29.081Z,0.40
2022-09-21T20:47:57.421Z,0.30
2022-09-21T20:50:30.506Z,0.40
2022-09-21T20:52:57.468Z,0.40
2022-09-21T20:55:25.371Z,0.40
2022-09-21T20:57:52.183Z,0.30
2022-09-21T21:00:19.453Z,0.20
2022-09-21T21:02:46.473Z,0.40
2022-09-21T21:05:13.260Z,0.47
2022-09-21T21:07:43.497Z,0.40
2022-09-21T21:10:15.673Z,0.47
2022-09-21T21:12:43.279Z,0.40
2022-09-21T21:15:11.489Z,0.40
2022-09-21T21:17:39.343Z,0.40
2022-09-21T21:20:07.279Z,0.40
2022-09-21T21:22:36.018Z,0.30
2022-09-21T21:25:02.945Z,0.40
2022-09-21T21:27:29.773Z,0.40
2022-09-21T21:29:56.688Z,0.43
2022-09-21T21:32:26.020Z,0.50
2022-09-21T21:34:54.087Z,0.45
2022-09-21T21:37:23.377Z,0.40
2022-09-21T21:39:50.649Z,0.50
2022-09-21T21:42:18.506Z,0.32
2022-09-21T21:44:46.697Z,0.40
2022-09-21T21:47:38.800Z,0.30
2022-09-21T21:50:01.156Z,0.47
2022-09-21T21:52:28.339Z,0.50
2022-09-21T21:54:57.875Z,0.60
2022-09-21T21:57:25.089Z,0.50
2022-09-21T21:59:52.012Z,0.40
2022-09-21T22:02:18.944Z,0.40
2022-09-21T22:04:45.757Z,0.52
2022-09-21T22:07:12.512Z,0.40
2022-09-21T22:09:39.396Z,0.30
2022-09-21T22:12:06.825Z,0.38
2022-09-21T22:14:33.710Z,0.43
2022-09-21T22:17:00.652Z,0.40
2022-09-21T22:19:27.462Z,0.47
2022-09-21T22:21:54.868Z,0.50
2022-09-21T22:24:21.973Z,0.50
2022-09-21T22:26:49.038Z,0.40
2022-09-21T22:29:17.263Z,0.40
2022-09-21T22:31:46.902Z,0.50
2022-09-21T22:34:14.925Z,0.30
2022-09-21T22:36:43.941Z,0.38
2022-09-21T22:39:11.827Z,0.40
2022-09-21T22:41:42.989Z,0.40
2022-09-21T22:44:10.557Z,0.45
2022-09-21T22:46:37.892Z,0.43
2022-09-21T22:49:04.875Z,0.40
2022-09-21T22:51:31.987Z,0.50
2022-09-21T22:53:58.948Z,0.30
2022-09-21T22:56:31.890Z,0.40
2022-09-21T22:59:01.550Z,0.30
2022-09-21T23:01:39.791Z,0.40
2022-09-21T23:04:09.658Z,0.30
2022-09-21T23:06:38.713Z,0.32
2022-09-21T23:09:09.228Z,0.30
2022-09-21T23:11:38.603Z,0.30
2022-09-21T23:14:06.026Z,0.30
2022-09-21T23:16:33.180Z,0.30
2022-09-21T23:19:00.552Z,0.28
2022-09-21T23:21:30.027Z,0.40
2022-09-21T23:24:02.139Z,0.20
2022-09-21T23:26:31.097Z,0.30
2022-09-21T23:29:03.175Z,0.40
2022-09-21T23:31:31.608Z,0.20
2022-09-21T23:34:03.231Z,0.30
2022-09-21T23:36:31.200Z,0.30
2022-09-21T23:38:59.956Z,0.30
2022-09-21T23:41:32.192Z,0.38
2022-09-21T23:43:59.175Z,0.50
2022-09-21T23:46:32.392Z,0.40
2022-09-21T23:48:59.983Z,0.50
2022-09-21T23:51:27.196Z,0.43
2022-09-21T23:53:54.560Z,0.45
2022-09-21T23:56:23.251Z,0.30
2022-09-21T23:58:51.006Z,0.40
